Latest Weather Observations for Roseworthy

IDS60801

Issued at 7:11 pm CDT Sunday 29 March 2020 (issued every 10 minutes, with the page automatically refreshed every 10 minutes)

About weather observations | Map of weather stations | Latest weather observations for SA | Other Formats
Station Details ID: 023122 Name: ROSEWORTHY AWS Lat: -34.51 Lon: 138.68 Height: 65.0 m
Data from the previous 72 hours. | See also: Recent months at Roseworthy
Date/Time
CDT
Temp
°C
App
Temp
°C
Dew
Point
°C
Rel
Hum
%
Delta-T
°C
Wind Press
QNH
hPa
Press
MSL
hPa
Rain since
9am
mm
Dir  Spd
km/h
Gust
km/h
Spd
kts
Gust
kts
29/07:00pm 20.2 18.5 12.4 61 4.4 W 13 17 7 9 1012.0 1011.8 0.2
29/06:30pm 21.0 19.3 12.4 58 4.9 WSW 13 17 7 9 1011.6 1011.4 0.2
29/06:00pm 21.4 18.8 12.0 55 5.3 SW 17 22 9 12 1011.3 1011.1 0.2
29/05:30pm 22.5 19.7 11.3 49 6.3 SW 17 24 9 13 1010.9 1010.7 0.2
29/05:00pm 22.9 19.7 11.3 48 6.5 WSW 19 28 10 15 1010.6 1010.4 0.2
29/04:30pm 23.1 19.9 11.2 47 6.7 SW 19 28 10 15 1010.3 1010.1 0.2
29/04:00pm 23.7 20.7 12.4 49 6.5 WSW 20 32 11 17 1010.2 1010.0 0.2
29/03:30pm 23.6 20.7 12.3 49 6.5 SW 19 30 10 16 1009.9 1009.7 0.2
29/03:00pm 22.6 20.2 13.7 57 5.2 WSW 19 26 10 14 1010.2 1010.0 0.2
29/02:30pm 22.2 19.8 14.3 61 4.6 SSW 20 30 11 16 1010.5 1010.3 0.2
29/02:00pm 22.3 19.7 14.9 63 4.4 WSW 22 35 12 19 1010.5 1010.3 0.2
29/01:30pm 22.6 19.7 15.0 62 4.5 SW 24 33 13 18 1010.6 1010.4 0.2
29/01:00pm 22.9 19.8 15.7 64 4.3 WSW 26 37 14 20 1010.4 1010.2 0.2
29/12:30pm 22.7 19.3 15.8 65 4.2 WSW 28 37 15 20 1010.5 1010.3 0.2
29/12:00pm 22.7 19.0 16.0 66 4.1 SW 30 41 16 22 1010.1 1009.9 0.2
29/11:47am 22.8 17.5 14.1 58 5.1 W 35 48 19 26 1010.0 1009.8 0.2
29/11:40am 25.2 18.0 9.1 36 8.8 WNW 37 48 20 26 1009.9 1009.7 0.2
29/11:30am 25.9 19.4 8.8 34 9.3 NW 33 48 18 26 1010.0 1009.8 0.2
29/11:00am 24.2 19.2 8.2 36 8.5 NNW 24 32 13 17 1009.7 1009.5 0.2
29/10:30am 23.5 19.6 9.5 41 7.6 N 20 24 11 13 1010.3 1010.1 0.2
29/10:00am 20.8 16.1 9.1 47 6.2 N 24 33 13 18 1010.3 1010.1 0.2
29/09:30am 18.9 15.6 11.7 63 4.0 NNE 20 26 11 14 1009.9 1009.7 0.2
29/09:00am 19.3 16.1 8.3 49 5.7 N 15 17 8 9 1011.3 1011.1 0.0
29/08:30am 19.2 17.2 7.3 46 6.1 NE 7 9 4 5 1011.2 1011.0 0.0
29/08:00am 19.0 16.5 8.1 49 5.6 NE 11 13 6 7 1010.5 1010.3 0.0
29/07:30am 20.8 17.3 5.6 37 7.6 W 13 20 7 11 1010.0 1009.8 0.0
29/07:00am 21.8 16.8 4.4 32 8.5 WNW 20 30 11 16 1010.0 1009.8 0.0
29/06:30am 21.3 17.8 1.0 26 9.3 NW 9 11 5 6 1008.5 1008.3 0.0
29/06:00am 22.9 18.3 1.3 24 10.1 N 15 19 8 10 1008.0 1007.8 0.0
29/05:30am 23.7 17.3 0.7 22 10.7 N 24 30 13 16 1006.9 1006.7 0.0
29/05:00am 24.0 17.1 0.4 21 10.9 NNE 26 33 14 18 1006.9 1006.7 0.0
29/04:30am 23.2 16.1 -1.0 20 10.8 NNE 26 30 14 16 1006.9 1006.7 0.0
29/04:00am 20.8 15.1 -3.6 19 10.1 NNE 17 22 9 12 1007.2 1007.0 0.0
29/03:30am 21.3 15.0 -4.0 18 10.5 N 20 26 11 14 1007.4 1007.2 0.0
29/03:00am 18.1 12.0 -3.9 22 8.9 NE 19 22 10 12 1007.7 1007.5 0.0
29/02:30am 18.5 12.7 -4.2 21 9.1 ENE 17 19 9 10 1008.0 1007.8 0.0
29/02:00am 18.6 12.9 -4.1 21 9.1 NE 17 20 9 11 1008.4 1008.2 0.0
29/01:30am 18.2 12.1 -3.8 22 8.9 NE 19 22 10 12 1008.4 1008.2 0.0
29/01:00am 18.2 11.5 -4.5 21 9.0 NE 22 26 12 14 1008.7 1008.5 0.0
29/12:30am 18.7 11.6 -4.7 20 9.3 NE 24 30 13 16 1009.1 1008.9 0.0
29/12:00am 19.5 12.4 -4.7 19 9.7 NE 24 28 13 15 1009.5 1009.3 0.0
 
Date/Time
CDT
Temp
°C
App
Temp
°C
Dew
Point
°C
Rel
Hum
%
Delta-T
°C
Wind Press
QNH
hPa
Press
MSL
hPa
Rain since
9am
mm
Dir  Spd
km/h
Gust
km/h
Spd
kts
Gust
kts
28/11:30pm 19.1 12.4 -4.4 20 9.5 NE 22 24 12 13 1010.2 1010.0 0.0
28/11:00pm 19.3 12.5 -4.9 19 9.6 NE 22 26 12 14 1010.5 1010.3 0.0
28/10:30pm 18.3 12.5 -4.4 21 9.1 NE 17 19 9 10 1010.9 1010.7 0.0
28/10:00pm 17.5 11.2 -5.7 20 8.9 NNE 19 20 10 11 1011.0 1010.8 0.0
28/09:30pm 18.5 13.0 -5.5 19 9.4 NNE 15 15 8 8 1011.4 1011.2 0.0
28/09:00pm 19.2 14.0 -5.7 18 9.8 N 13 13 7 7 1011.8 1011.6 0.0
28/08:30pm 19.3 14.5 -5.6 18 9.8 N 11 11 6 6 1011.4 1011.2 0.0
28/08:00pm 21.8 17.5 -5.1 16 10.9 NW 9 11 5 6 1011.1 1010.9 0.0
28/07:30pm 23.8 18.7 -5.3 14 12.0 NW 13 15 7 8 1011.2 1011.0 0.0
28/07:00pm 27.5 21.7 -4.4 12 13.9 WNW 17 24 9 13 1011.1 1010.9 0.0
28/06:30pm 30.0 23.0 -3.6 11 15.1 NW 24 32 13 17 1011.0 1010.8 0.0
28/06:00pm 31.0 24.3 -4.1 10 15.8 NW 22 32 12 17 1010.9 1010.7 0.0
28/05:30pm 31.5 25.1 -5.2 9 16.3 NW 20 28 11 15 1010.9 1010.7 0.0
28/05:00pm 32.0 24.9 -4.8 9 16.5 NNW 24 37 13 20 1011.0 1010.8 0.0
28/04:30pm 32.3 25.3 -3.2 10 16.4 NNW 24 37 13 20 1011.1 1010.9 0.0
28/04:00pm 31.8 24.8 -3.5 10 16.1 NNW 24 39 13 21 1011.6 1011.4 0.0
28/03:30pm 31.8 24.2 -2.3 11 15.9 NNW 28 39 15 21 1011.6 1011.4 0.0
28/03:00pm 31.6 25.0 -0.1 13 15.3 NW 24 37 13 20 1012.0 1011.8 0.0
28/02:30pm 31.6 24.2 1.8 15 14.9 NW 30 39 16 21 1012.4 1012.2 0.0
28/02:00pm 31.3 24.7 -0.4 13 15.2 NNW 24 35 13 19 1013.0 1012.8 0.0
28/01:30pm 30.9 24.5 3.0 17 14.1 NNW 26 39 14 21 1013.7 1013.4 0.0
28/01:00pm 30.5 25.1 4.3 19 13.5 NNW 22 35 12 19 1014.2 1014.0 0.0
28/12:30pm 30.4 25.2 5.6 21 13.1 NNW 22 33 12 18 1014.5 1014.3 0.0
28/12:00pm 29.5 23.6 5.6 22 12.5 N 26 39 14 21 1015.0 1014.8 0.0
28/11:30am 29.2 23.5 6.6 24 12.0 N 26 35 14 19 1015.5 1015.3 0.0
28/11:00am 29.4 24.4 7.9 26 11.7 N 24 37 13 20 1015.9 1015.7 0.0
28/10:30am 28.4 22.6 8.1 28 11.0 NNE 28 37 15 20 1015.9 1015.7 0.0
28/10:00am 27.2 21.1 3.0 21 12.0 NE 24 30 13 16 1016.1 1015.9 0.0
28/09:30am 25.1 19.3 2.5 23 10.9 NE 22 26 12 14 1016.1 1015.9 0.0
28/09:00am 22.7 17.3 2.2 26 9.7 NE 20 24 11 13 1016.2 1016.0 0.0
28/08:30am 19.2 13.6 1.2 30 8.1 NE 20 24 11 13 1016.3 1016.1 0.0
28/08:00am 16.1 9.9 -0.6 32 7.1 NE 22 28 12 15 1016.2 1016.0 0.0
28/07:30am 14.9 8.6 -0.8 34 6.5 NE 22 26 12 14 1015.8 1015.6 0.0
28/07:00am 14.6 8.2 -1.5 33 6.6 NE 22 26 12 14 1015.9 1015.7 0.0
28/06:30am 14.8 8.5 -1.3 33 6.6 NE 22 24 12 13 1015.8 1015.6 0.0
28/06:00am 14.4 9.0 -1.2 34 6.4 NE 17 24 9 13 1015.7 1015.5 0.0
28/05:30am 13.5 9.6 -1.6 35 6.1 ENE 9 11 5 6 1016.1 1015.9 0.0
28/05:00am 12.7 7.9 -2.3 35 5.9 ENE 13 15 7 8 1016.1 1015.9 0.0
28/04:30am 12.0 7.1 -3.0 35 5.8 NE 13 15 7 8 1016.3 1016.1 0.0
28/04:00am 13.2 7.7 -2.3 34 6.1 ENE 17 22 9 12 1016.3 1016.1 0.0
28/03:30am 12.2 6.6 -2.8 35 5.8 ENE 17 20 9 11 1016.6 1016.4 0.0
28/03:00am 11.8 6.2 -2.8 36 5.6 ENE 17 17 9 9 1017.0 1016.8 0.0
28/02:30am 12.5 6.9 -2.9 34 5.9 ENE 17 19 9 10 1017.3 1017.1 0.0
28/02:00am 11.1 5.5 -3.0 37 5.4 ENE 17 19 9 10 1017.5 1017.3 0.0
28/01:30am 11.0 6.1 -3.1 37 5.3 NE 13 15 7 8 1017.7 1017.5 0.0
28/01:00am 10.9 6.0 -3.2 37 5.3 E 13 17 7 9 1017.8 1017.6 0.0
28/12:30am 12.2 8.1 -2.8 35 5.8 NE 9 13 5 7 1018.1 1017.9 0.0
28/12:00am 13.5 8.3 -2.8 32 6.4 NE 15 19 8 10 1018.3 1018.1 0.0
 
Date/Time
CDT
Temp
°C
App
Temp
°C
Dew
Point
°C
Rel
Hum
%
Delta-T
°C
Wind Press
QNH
hPa
Press
MSL
hPa
Rain since
9am
mm
Dir  Spd
km/h
Gust
km/h
Spd
kts
Gust
kts
27/11:30pm 13.0 7.8 -2.9 33 6.2 NE 15 15 8 8 1018.3 1018.1 0.0
27/11:00pm 14.4 9.3 -2.1 32 6.6 NE 15 17 8 9 1018.4 1018.2 0.0
27/10:30pm 15.0 9.8 0.1 36 6.3 NE 17 20 9 11 1018.4 1018.2 0.0
27/10:00pm 14.2 8.7 0.8 40 5.7 NE 19 20 10 11 1018.5 1018.3 0.0
27/09:30pm 12.8 8.7 -0.4 40 5.4 ENE 11 13 6 7 1018.4 1018.2 0.0
27/09:00pm 14.7 12.5 0.9 39 5.9 ESE 2 7 1 4 1018.5 1018.3 0.0
27/08:30pm 14.9 12.9 -0.4 35 6.4 CALM 0 0 0 0 1018.3 1018.1 0.0
27/08:24pm 14.8 12.7 -0.9 34 6.5 CALM 0 0 0 0 1018.2 1018.0 0.0
27/08:00pm 19.8 18.0 3.5 34 7.7 WSW 2 6 1 3 1018.0 1017.8 0.0
27/07:30pm 21.6 18.1 3.3 30 8.7 SW 11 13 6 7 1017.9 1017.7 0.0
27/07:00pm 24.1 21.1 4.0 27 9.9 SW 9 15 5 8 1017.8 1017.6 0.0
27/06:30pm 25.4 21.1 3.4 24 10.8 SW 15 20 8 11 1017.6 1017.4 0.0
27/06:00pm 26.1 21.2 4.0 24 11.0 SW 19 24 10 13 1017.4 1017.2 0.0
27/05:30pm 26.4 21.2 5.4 26 10.8 SW 22 28 12 15 1017.5 1017.3 0.0
27/05:00pm 27.3 23.3 5.0 24 11.4 SSW 15 26 8 14 1017.6 1017.4 0.0
27/04:30pm 28.7 25.6 0.4 16 13.5 SSE 6 15 3 8 1017.7 1017.5 0.0
27/04:00pm 28.5 24.6 1.1 17 13.2 NNE 11 17 6 9 1018.1 1017.9 0.0
27/03:30pm 28.5 25.0 1.1 17 13.2 ESE 9 20 5 11 1018.4 1018.2 0.0
27/03:00pm 27.4 22.7 1.0 18 12.6 SE 15 24 8 13 1018.7 1018.5 0.0
27/02:30pm 27.6 23.3 1.2 18 12.7 SE 13 19 7 10 1019.1 1018.9 0.0
27/02:00pm 26.9 23.0 1.3 19 12.3 N 11 17 6 9 1019.5 1019.3 0.0
27/01:30pm 26.8 24.4 2.0 20 12.0 ENE 4 11 2 6 1019.8 1019.6 0.0
27/01:00pm 26.9 22.8 2.1 20 12.1 E 13 22 7 12 1020.3 1020.1 0.0
27/12:30pm 26.5 22.5 3.1 22 11.5 ENE 13 20 7 11 1020.7 1020.5 0.0
27/12:00pm 26.7 22.8 3.2 22 11.6 NE 13 24 7 13 1021.2 1021.0 0.0
27/11:30am 25.9 22.8 3.8 24 11.0 ENE 9 17 5 9 1021.6 1021.4 0.0
27/11:00am 24.5 20.5 2.6 24 10.6 ENE 13 20 7 11 1021.8 1021.6 0.0
27/10:30am 23.4 19.7 4.4 29 9.4 ENE 13 17 7 9 1021.9 1021.7 0.0
27/10:00am 22.3 18.9 5.7 34 8.4 ENE 13 19 7 10 1022.2 1022.0 0.0
27/09:30am 19.2 16.6 6.0 42 6.5 E 9 13 5 7 1022.3 1022.1 0.0
27/09:00am 16.5 13.8 5.8 49 5.2 ENE 9 13 5 7 1022.4 1022.2 -
27/08:30am 14.8 11.4 5.9 55 4.2 NE 13 17 7 9 1022.3 1022.1 -
27/08:00am 10.8 7.2 5.1 68 2.6 ENE 13 15 7 8 1022.0 1021.8 -
27/07:30am 8.9 5.6 4.5 74 1.9 E 11 11 6 6 1021.8 1021.6 -
27/07:00am 8.8 5.4 4.2 73 2.0 E 11 11 6 6 1021.6 1021.4 -
27/06:30am 9.4 6.8 4.4 71 2.2 ENE 7 9 4 5 1021.5 1021.3 -
27/06:00am 10.4 8.1 5.8 73 2.1 NNE 7 7 4 4 1021.3 1021.1 -
27/05:30am 10.0 7.7 5.6 74 2.0 NE 7 9 4 5 1021.0 1020.8 -
27/05:00am 9.9 6.5 5.9 76 1.8 NE 13 15 7 8 1021.0 1020.8 -
27/04:30am 7.7 4.7 3.9 77 1.6 ENE 9 13 5 7 1021.0 1020.8 -
27/04:00am 7.8 4.0 3.7 75 1.8 ENE 13 15 7 8 1021.2 1021.0 -
27/03:30am 8.6 4.5 4.2 74 1.9 NE 15 17 8 9 1021.5 1021.3 -
27/03:00am 9.1 5.4 4.5 73 2.0 NE 13 15 7 8 1021.8 1021.6 0.0
27/02:30am 9.6 6.7 4.8 72 2.1 NNE 9 11 5 6 1021.9 1021.7 -
27/02:00am 9.9 7.5 4.3 68 2.5 NE 6 7 3 4 1022.1 1021.9 -
27/01:30am 10.5 7.2 4.6 67 2.6 E 11 13 6 7 1022.1 1021.9 -
27/01:00am 10.3 6.3 5.1 70 2.4 E 15 17 8 9 1022.0 1021.8 -
27/12:30am 10.7 7.0 4.6 66 2.7 E 13 17 7 9 1022.0 1021.8 -
27/12:00am 10.7 7.5 5.0 68 2.6 E 11 13 6 7 1022.0 1021.8 -
 
Date/Time
CDT
Temp
°C
App
Temp
°C
Dew
Point
°C
Rel
Hum
%
Delta-T
°C
Wind Press
QNH
hPa
Press
MSL
hPa
Rain since
9am
mm
Dir  Spd
km/h
Gust
km/h
Spd
kts
Gust
kts
26/11:30pm 10.0 6.9 3.5 64 2.8 E 9 13 5 7 1022.2 1022.0 -
26/11:00pm 14.5 11.7 8.5 67 3.0 ESE 13 17 7 9 1022.3 1022.1 -
26/10:30pm 13.5 10.4 7.3 66 3.0 ESE 13 15 7 8 1022.3 1022.1 -
26/10:00pm 13.0 9.6 3.9 54 4.1 E 11 13 6 7 1022.4 1022.2 -
26/09:30pm 13.2 12.3 5.9 61 3.4 CALM 0 0 0 0 1022.5 1022.3 -
26/09:00pm 13.5 12.2 4.1 53 4.3 CALM 0 0 0 0 1022.2 1022.0 -
26/08:30pm 15.8 14.0 5.4 50 5.0 S 4 7 2 4 1021.9 1021.7 -
26/08:00pm 17.7 15.8 7.4 51 5.2 S 7 11 4 6 1021.9 1021.7 -
26/07:30pm 19.3 16.7 7.7 47 5.9 SSW 11 13 6 7 1021.9 1021.7 -

Other formats

Comma delimited format used in spreadsheet applications
http://www.bom.gov.au/fwo/IDS60801/IDS60801.95671.axf

JavaScript Object Notation format (JSON) in row-major order
http://www.bom.gov.au/fwo/IDS60801/IDS60801.95671.json

Data quality

Most of these data are generated automatically and are frequently updated. Quality checks on data are not normally performed. It is possible for incorrect values to appear. Refer to information at About Latest Weather Observations and please check the disclaimer before using these data.